Terminal Aerodrome Forecast
Issued by NWS

Home | Current Version | Previous Version | Text Only | Print | Product List | Glossary On
Versions: 1 2 3 4 5 6 7 8 9 10 11 12 13 14 15
000
FTUS44 KBMX 221120
TAFMGM
TAF
KMGM 221120Z 2212/2312 10011KT P6SM OVC018
     FM221400 11015G23KT P6SM VCSH OVC012
     FM221700 12015G25KT 5SM SHRA OVC025
      TEMPO 2220/2224 2SM TSRA BKN010CB
     FM230400 18010KT P6SM BKN025
     FM230700 19007KT P6SM BKN007=

USA.gov is the U.S. government's official web portal to all federal, state and local government web resources and services.